Pedro, Ohio
Current Conditions -  °F | °C
As of 2:55 PM on Friday 24 Oct 2014 (Local Time) from KDWU Reporting Station
Clear Clear  
Wind Chill: 63°   Ceiling: Unl
Heat Index: 63°   Visibility: 8mi
Dew Point: 39°   Wind: 3mph
Humidity: 42%   Direction: 320°NW
Pressure: 30.05"   Gusts: NA
Location:  38.63°N, 82.67°W
Report Text: KDWU 241855Z AUTO 32003KT 8SM CLR 17/04 A3005 RMK AO1
Loading
Personal Weather Stations






























Interactive Weather Map
Tropical Storm Tracking
New forecast layout! Learn more

10-Day Weather Forecast

Advertisements
Track Severe Weather on mobile